tititudorancea.com
Station Historical Data
Daily Summary for March 19, 2018 Units:  Metric    English   Both
« Previous Day
Next Day »
Daily Weekly Monthly Yearly Custom
  High: Low: Average:
Temperature: -17.8 °C 11.8 °C 16.7 °C
Dew Point: -17.8 °C 4.5 °C 10.2 °C
Humidity: Humidity % 50 % 66 %
Wind Speed: 0 km/h 0.5 km/h 13.8 km/h
Wind Gust: 0 km/h - -
Wind:- - West
Pressure: 0 hPa 1012.4 hPa -
Precipitation: 0.51 mm    
Historical Graphs
 
 
Ararat weather Find more about Weather in Ararat, AU


 



 


Tabular Data for March 19, 2018
Time Temperature Dew Point Pressure Wind Wind Speed Wind Gust Humidity Rainfall Rate (Hourly)
-17.8 °C -17.8 °C 0 hPa Calm     Humidity % 0 mm
00:01 13.4 °C 4.5 °C 1013.1 hPa NNE 0.5 km/h 3.7 km/h 55 % 0 mm
00:06 13.3 °C 4.7 °C 1013.4 hPa NNE 6.6 km/h 14.5 km/h 56 % 0 mm
00:11 13.2 °C 4.6 °C 1013.4 hPa NNE 8.2 km/h 9.3 km/h 56 % 0 mm
00:16 13.2 °C 4.6 °C 1013.4 hPa NNE 13 km/h 16.7 km/h 56 % 0 mm
00:21 13.3 °C 4.7 °C 1013.1 hPa North 6.9 km/h 9.3 km/h 56 % 0 mm
00:26 13.2 °C 4.6 °C 1013.1 hPa North 8.2 km/h 18.5 km/h 56 % 0 mm
00:31 13.2 °C 4.6 °C 1013.4 hPa North 13.7 km/h 20.4 km/h 56 % 0 mm
00:36 13.1 °C 4.8 °C 1013.1 hPa North 10.9 km/h 16.7 km/h 57 % 0 mm
00:41 13.2 °C 4.9 °C 1013.4 hPa NW 15.1 km/h 17.7 km/h 57 % 0 mm
00:46 13.3 °C 4.7 °C 1013.1 hPa NNW 8.5 km/h 13 km/h 56 % 0 mm
00:51 13.2 °C 4.6 °C 1013.1 hPa NNW 11.3 km/h 18.5 km/h 56 % 0 mm
00:56 13.1 °C 4.7 °C 1013.1 hPa North 11.1 km/h 16.7 km/h 57 % 0 mm
01:01 13.1 °C 4.7 °C 1013.1 hPa NNE 9.5 km/h 20.4 km/h 57 % 0 mm
01:06 13.1 °C 4.7 °C 1013.4 hPa North 10 km/h 18.5 km/h 57 % 0 mm
01:11 13.1 °C 4.7 °C 1013.1 hPa NNE 12.7 km/h 18.5 km/h 57 % 0 mm
01:16 13 °C 4.7 °C 1013.4 hPa NNE 5 km/h 9.3 km/h 57 % 0 mm
01:21 12.9 °C 4.8 °C 1013.4 hPa NNE 9.8 km/h 14.8 km/h 58 % 0 mm
01:26 12.8 °C 4.8 °C 1013.1 hPa NNE 5.5 km/h 9.7 km/h 58 % 0 mm
01:31 12.7 °C 4.9 °C 1013.1 hPa NNE 7.1 km/h 9.3 km/h 59 % 0 mm
01:36 12.6 °C 5.1 °C 1013.4 hPa NNE 8.4 km/h 14.8 km/h 60 % 0 mm
01:41 12.6 °C 5.1 °C 1013.1 hPa NE 6.8 km/h 13 km/h 60 % 0 mm
01:46 12.6 °C 5.1 °C 1013.4 hPa NNE 15.4 km/h 20.9 km/h 60 % 0 mm
01:51 12.7 °C 5.2 °C 1013.1 hPa NNE 3.4 km/h 11.1 km/h 60 % 0 mm
01:56 12.7 °C 5.2 °C 1013.1 hPa NE 8.9 km/h 16.7 km/h 60 % 0 mm
02:01 12.6 °C 5.3 °C 1013.1 hPa NNE 9.8 km/h 11.1 km/h 61 % 0 mm
02:06 12.5 °C 5.2 °C 1013.1 hPa NE 5.5 km/h 16.7 km/h 61 % 0 mm
02:11 12.4 °C 5.3 °C 1013.1 hPa NE 4.8 km/h 13 km/h 62 % 0 mm
02:16 12.2 °C 5.2 °C 1013.1 hPa NE 6.8 km/h 11.3 km/h 62 % 0 mm
02:21 12.2 °C 5.3 °C 1013.4 hPa NE 7.2 km/h 13 km/h 63 % 0 mm
02:26 12.1 °C 5.5 °C 1013.1 hPa NE 6.9 km/h 11.3 km/h 64 % 0 mm
02:31 12.1 °C 5.4 °C 1013.1 hPa NE 5.6 km/h 9.3 km/h 64 % 0 mm
02:36 11.9 °C 5.6 °C 1013.1 hPa NE 2.4 km/h 5.6 km/h 65 % 0 mm
02:41 11.8 °C 5.6 °C 1013.1 hPa NE 2.7 km/h 5.6 km/h 66 % 0 mm
02:46 11.8 °C 5.8 °C 1013.1 hPa NW 12.1 km/h 22.2 km/h 67 % 0 mm
02:51 12.7 °C 6.5 °C 1013.1 hPa WNW 20.4 km/h 25.9 km/h 66 % 0 mm
02:56 12.9 °C 6.2 °C 1012.8 hPa NW 25.6 km/h 31.5 km/h 64 % 0 mm
03:01 12.9 °C 6.3 °C 1012.8 hPa North 20.6 km/h 25.9 km/h 64 % 0 mm
03:06 12.8 °C 6.3 °C 1013.1 hPa WNW 12.9 km/h 18.5 km/h 65 % 0 mm
03:11 12.7 °C 6.3 °C 1013.1 hPa WNW 14.5 km/h 18.5 km/h 65 % 0 mm
03:16 12.7 °C 6.3 °C 1013.1 hPa NW 17.7 km/h 20.9 km/h 65 % 0 mm
03:21 12.8 °C 6.6 °C 1013.1 hPa North 19.5 km/h 22.2 km/h 66 % 0 mm
03:26 12.9 °C 7.2 °C 1013.1 hPa WNW 15.1 km/h 18.5 km/h 68 % 0 mm
03:31 12.8 °C 6.6 °C 1013.1 hPa North 13.8 km/h 16.7 km/h 66 % 0 mm
03:36 12.8 °C 6.8 °C 1013.1 hPa West 19 km/h 24.1 km/h 67 % 0 mm
03:41 12.9 °C 6.9 °C 1013.1 hPa WNW 18.7 km/h 24.1 km/h 67 % 0 mm
03:46 13 °C 7.2 °C 1013.1 hPa NW 19.6 km/h 25.9 km/h 68 % 0 mm
03:51 13.1 °C 7.3 °C 1013.1 hPa NW 18 km/h 24.1 km/h 68 % 0 mm
03:56 13.1 °C 7.3 °C 1013.1 hPa North 18.8 km/h 25.9 km/h 68 % 0 mm
04:01 12.9 °C 7.2 °C 1012.8 hPa WNW 17.4 km/h 22.2 km/h 68 % 0 mm
04:06 13 °C 7.4 °C 1013.1 hPa WNW 21.2 km/h 29.6 km/h 69 % 0 mm
04:11 13.1 °C 7.6 °C 1012.8 hPa WNW 23 km/h 31.5 km/h 69 % 0 mm
04:16 13.2 °C 7.7 °C 1012.8 hPa NW 21.6 km/h 38.9 km/h 69 % 0 mm
04:21 13.4 °C 7.6 °C 1012.8 hPa NW 28.6 km/h 35.2 km/h 68 % 0 mm
04:26 13.6 °C 7.8 °C 1012.8 hPa WNW 19.6 km/h 27.8 km/h 68 % 0 mm
04:31 13.6 °C 7.8 °C 1012.8 hPa North 20.6 km/h 27.8 km/h 68 % 0 mm
04:36 13.7 °C 7.9 °C 1012.8 hPa WNW 29.5 km/h 44.4 km/h 68 % 0 mm
04:41 13.6 °C 7.8 °C 1012.4 hPa NW 29 km/h 33.3 km/h 68 % 0 mm
04:46 13.7 °C 7.9 °C 1012.4 hPa NW 20.9 km/h 31.5 km/h 68 % 0 mm
04:51 13.6 °C 7.8 °C 1012.4 hPa North 23.5 km/h 33.3 km/h 68 % 0 mm
04:56 13.5 °C 7.9 °C 1012.4 hPa WNW 23.8 km/h 31.5 km/h 69 % 0 mm
05:01 13.6 °C 8 °C 1012.4 hPa WNW 17.9 km/h 41.8 km/h 69 % 0 mm
05:06 13.8 °C 8 °C 1012.4 hPa NW 18.3 km/h 29.6 km/h 68 % 0 mm
05:07 13.8 °C 8 °C 1012.4 hPa NW 12.7 km/h 25.9 km/h 68 % 0 mm
05:12 13.9 °C 8.1 °C 1012.4 hPa North 21.4 km/h 25.9 km/h 68 % 0 mm
05:17 14 °C 8.4 °C 1012.4 hPa NW 21.2 km/h 38.9 km/h 69 % 0 mm
05:22 14 °C 8.4 °C 1012.4 hPa NW 14.6 km/h 24.1 km/h 69 % 0 mm
05:27 14 °C 8.4 °C 1012.4 hPa WNW 12.4 km/h 25.9 km/h 69 % 0 mm
05:32 14 °C 8.4 °C 1012.4 hPa NW 16.4 km/h 29.6 km/h 69 % 0 mm
05:37 13.9 °C 8.3 °C 1012.4 hPa WNW 16.9 km/h 29.6 km/h 69 % 0 mm
05:42 13.8 °C 8.4 °C 1012.4 hPa North 16.4 km/h 22.5 km/h 70 % 0 mm
05:47 13.8 °C 8.7 °C 1012.4 hPa WNW 19 km/h 29.6 km/h 71 % 0 mm
05:52 13.7 °C 8.6 °C 1012.4 hPa NW 26.1 km/h 41.8 km/h 71 % 0 mm
05:57 13.9 °C 8.5 °C 1012.4 hPa North 21.1 km/h 25.9 km/h 70 % 0 mm
06:03 13.7 °C 8.8 °C 1012.4 hPa North 19.3 km/h 31.5 km/h 72 % 0 mm
06:08 13.8 °C 9 °C 1012.4 hPa NW 24.5 km/h 33.3 km/h 73 % 0 mm
06:12 13.8 °C 9 °C 1012.4 hPa NW 17.5 km/h 25.9 km/h 73 % 0 mm
06:18 13.8 °C 9 °C 1012.4 hPa North 18.2 km/h 31.5 km/h 73 % 0 mm
06:23 13.9 °C 9.1 °C 1012.8 hPa North 17.4 km/h 27.8 km/h 73 % 0 mm
06:28 13.8 °C 8.8 °C 1012.8 hPa NW 12.4 km/h 18.5 km/h 72 % 0 mm
06:33 13.7 °C 8.9 °C 1012.8 hPa NNW 18.7 km/h 27.8 km/h 73 % 0 mm
06:38 13.7 °C 8.9 °C 1013.1 hPa NNW 17.2 km/h 22.5 km/h 73 % 0 mm
06:43 13.8 °C 9 °C 1012.8 hPa NW 14.6 km/h 22.2 km/h 73 % 0 mm
06:48 13.8 °C 9 °C 1013.1 hPa North 10.9 km/h 16.7 km/h 73 % 0 mm
06:53 13.8 °C 9 °C 1013.1 hPa North 12.2 km/h 16.7 km/h 73 % 0 mm
06:58 13.8 °C 9.2 °C 1013.1 hPa NW 13.2 km/h 18.5 km/h 74 % 0 mm
07:03 13.8 °C 9.3 °C 1013.1 hPa NNW 7.1 km/h 9.7 km/h 74 % 0 mm
07:08 13.8 °C 9.1 °C 1013.4 hPa NNW 11.4 km/h 18.5 km/h 73 % 0 mm
07:13 13.8 °C 9 °C 1013.4 hPa NNW 9.5 km/h 16.1 km/h 73 % 0 mm
07:18 13.8 °C 9.2 °C 1013.4 hPa NNW 14.6 km/h 24.1 km/h 74 % 0 mm
07:23 13.9 °C 9.3 °C 1013.1 hPa NNW 17.1 km/h 24.1 km/h 74 % 0 mm
07:28 13.9 °C 9.3 °C 1013.1 hPa North 17.2 km/h 22.2 km/h 74 % 0 mm
07:33 13.9 °C 9.4 °C 1013.4 hPa North 15.9 km/h 24.1 km/h 74 % 0 mm
07:38 13.9 °C 9.3 °C 1013.4 hPa NW 16.9 km/h 25.9 km/h 74 % 0 mm
07:43 13.9 °C 9.3 °C 1013.4 hPa NW 17.7 km/h 24.1 km/h 74 % 0 mm
07:48 13.9 °C 9.3 °C 1013.8 hPa North 19.2 km/h 27.4 km/h 74 % 0 mm
07:53 13.9 °C 9.3 °C 1013.8 hPa NW 16.9 km/h 22.2 km/h 74 % 0 mm
07:58 13.9 °C 9.3 °C 1013.8 hPa North 15.6 km/h 22.5 km/h 74 % 0 mm
08:03 13.8 °C 9.3 °C 1014.1 hPa North 11.9 km/h 18.5 km/h 74 % 0 mm
08:08 13.9 °C 9.3 °C 1014.1 hPa NNW 15 km/h 18.5 km/h 74 % 0 mm
08:13 14.1 °C 9.5 °C 1014.1 hPa NNW 9.7 km/h 18.5 km/h 74 % 0 mm
08:25 13.9 °C 9.4 °C 1014.4 hPa North 20.4 km/h 25.7 km/h 74 % 0 mm
08:30 13.9 °C 9.4 °C 1014.4 hPa NNW 14 km/h 20.4 km/h 74 % 0 mm
08:35 13.9 °C 9.3 °C 1014.4 hPa NW 12.9 km/h 16.7 km/h 74 % 0 mm
08:40 13.8 °C 9.3 °C 1014.4 hPa NNW 10 km/h 16.7 km/h 74 % 0 mm
08:45 13.9 °C 9.3 °C 1014.4 hPa North 11.1 km/h 14.8 km/h 74 % 0 mm
08:50 13.9 °C 9.3 °C 1014.4 hPa NNW 11.4 km/h 18.5 km/h 74 % 0 mm
08:55 13.9 °C 9.6 °C 1014.4 hPa NNE 11.7 km/h 16.7 km/h 75 % 0 mm
09:00 14.3 °C 9.7 °C 1014.4 hPa NNE 11.6 km/h 16.7 km/h 74 % 0 mm
09:05 14.6 °C 9.8 °C 1014.8 hPa North 11.7 km/h 27.8 km/h 73 % 0 mm
09:10 14.8 °C 9.8 °C 1014.8 hPa NNW 11.6 km/h 14.5 km/h 72 % 0 mm
09:15 15.1 °C 9.9 °C 1014.8 hPa North 13.7 km/h 20.4 km/h 71 % 0 mm
09:20 15.3 °C 9.8 °C 1014.8 hPa North 9 km/h 11.1 km/h 70 % 0 mm
09:25 15.3 °C 9.9 °C 1014.8 hPa NNW 12.4 km/h 14.5 km/h 70 % 0 mm
09:30 15.3 °C 10.1 °C 1014.8 hPa North 15 km/h 22.2 km/h 71 % 0 mm
09:35 15.3 °C 10.1 °C 1014.8 hPa North 13.4 km/h 31.5 km/h 71 % 0 mm
09:40 15.2 °C 10 °C 1014.8 hPa NNE 14.3 km/h 27.8 km/h 71 % 0 mm
09:45 15.5 °C 10.3 °C 1014.8 hPa NNE 5.8 km/h 18.5 km/h 71 % 0 mm
09:50 15.9 °C 10.3 °C 1014.8 hPa NNE 15 km/h 29.6 km/h 69 % 0 mm
09:55 15.9 °C 10.4 °C 1014.8 hPa NNE 13 km/h 20.4 km/h 70 % 0 mm
10:00 16 °C 10.3 °C 1014.8 hPa NNE 17.5 km/h 20.4 km/h 69 % 0 mm
10:05 16.1 °C 10.4 °C 1014.8 hPa North 17.4 km/h 20.9 km/h 69 % 0 mm
10:10 16.3 °C 10.6 °C 1014.8 hPa North 16.7 km/h 22.2 km/h 69 % 0 mm
10:15 16.3 °C 10.6 °C 1014.8 hPa North 9.8 km/h 19.3 km/h 69 % 0 mm
10:20 16.6 °C 10.8 °C 1014.8 hPa North 11.9 km/h 12.9 km/h 69 % 0 mm
10:25 16.8 °C 10.8 °C 1014.8 hPa North 3.1 km/h 13 km/h 68 % 0 mm
10:30 16.7 °C 10.7 °C 1015.1 hPa North 10.8 km/h 16.7 km/h 68 % 0 mm
10:35 16.5 °C 10.8 °C 1015.1 hPa NW 6.6 km/h 16.7 km/h 69 % 0 mm
10:40 16.4 °C 10.7 °C 1015.1 hPa WNW 10.1 km/h 27.4 km/h 69 % 0 mm
10:45 16.6 °C 10.8 °C 1014.8 hPa NNW 10.3 km/h 16.7 km/h 69 % 0 mm
10:50 16.9 °C 11.2 °C 1014.8 hPa NW 12.4 km/h 29 km/h 69 % 0 mm
10:56 17.3 °C 11.2 °C 1014.8 hPa NNW 14.8 km/h 16.1 km/h 67 % 0 mm
11:01 17.7 °C 11.3 °C 1014.8 hPa WNW 18.7 km/h 33.3 km/h 66 % 0 mm
11:06 17.6 °C 11.1 °C 1015.1 hPa NW 19.2 km/h 25.9 km/h 66 % 0 mm
11:11 17.6 °C 11.2 °C 1015.1 hPa NW 13 km/h 22.2 km/h 66 % 0 mm
11:16 17.9 °C 11.4 °C 1015.1 hPa NW 14.3 km/h 20.4 km/h 66 % 0 mm
11:21 18 °C 11.3 °C 1015.1 hPa North 9.7 km/h 18.5 km/h 65 % 0 mm
11:26 18.5 °C 11.6 °C 1015.1 hPa NNW 15.1 km/h 27.8 km/h 64 % 0 mm
11:31 18.6 °C 11.4 °C 1015.1 hPa NW 15 km/h 25.9 km/h 63 % 0 mm
11:36 18.6 °C 11.4 °C 1015.1 hPa North 17.1 km/h 24.1 km/h 63 % 0 mm
11:41 18.8 °C 11.3 °C 1014.8 hPa WNW 19.6 km/h 35.2 km/h 62 % 0 mm
11:46 18.7 °C 11.5 °C 1014.8 hPa WNW 28.5 km/h 38.9 km/h 63 % 0 mm
11:51 18.7 °C 11.5 °C 1014.8 hPa North 23.2 km/h 37 km/h 63 % 0 mm
11:56 18.7 °C 11.5 °C 1014.8 hPa WNW 30.9 km/h 40.7 km/h 63 % 0 mm
12:01 18.7 °C 11.6 °C 1014.8 hPa NW 36.7 km/h 48.1 km/h 63 % 0 mm
12:06 18.6 °C 11.7 °C 1014.8 hPa West 35.1 km/h 46.3 km/h 64 % 0 mm
12:11 18.9 °C 11.7 °C 1014.8 hPa West 28.8 km/h 41.8 km/h 63 % 0 mm
12:16 19.4 °C 11.9 °C 1014.8 hPa WNW 20.4 km/h 35.2 km/h 62 % 0 mm
12:21 19.3 °C 12.1 °C 1014.8 hPa WNW 17.9 km/h 27.8 km/h 63 % 0 mm
12:26 19.5 °C 12 °C 1015.1 hPa NW 19.3 km/h 29.6 km/h 62 % 0 mm
12:31 19.4 °C 11.7 °C 1015.1 hPa North 26.7 km/h 33.3 km/h 61 % 0 mm
12:36 19 °C 12.1 °C 1015.1 hPa West 20.3 km/h 27.8 km/h 64 % 0 mm
12:41 19.4 °C 12.2 °C 1015.1 hPa WNW 25.1 km/h 33.8 km/h 63 % 0 mm
12:46 19.5 °C 12 °C 1014.8 hPa WNW 21.7 km/h 31.5 km/h 62 % 0 mm
12:51 19.6 °C 12.1 °C 1014.8 hPa NW 20.8 km/h 29.6 km/h 62 % 0 mm
12:56 19.9 °C 11.9 °C 1015.1 hPa North 20 km/h 25.9 km/h 60 % 0 mm
13:01 19.6 °C 11.9 °C 1014.8 hPa WNW 20 km/h 29.6 km/h 61 % 0 mm
13:06 19.9 °C 11.9 °C 1014.8 hPa North 17.2 km/h 27.8 km/h 60 % 0 mm
13:11 19.6 °C 11.6 °C 1014.8 hPa North 23.3 km/h 31.5 km/h 60 % 0 mm
13:16 19.9 °C 11.7 °C 1014.8 hPa NW 25.7 km/h 31.5 km/h 59 % 0 mm
13:21 19.9 °C 11.9 °C 1014.8 hPa WNW 21.1 km/h 25.9 km/h 60 % 0 mm
13:26 19.9 °C 11.9 °C 1014.8 hPa NW 18.5 km/h 27.8 km/h 60 % 0 mm
13:31 19.9 °C 11.7 °C 1014.4 hPa WNW 26.1 km/h 38.9 km/h 59 % 0 mm
13:36 20.2 °C 11.9 °C 1014.4 hPa NW 16.1 km/h 18.5 km/h 59 % 0 mm
13:41 20.4 °C 11.8 °C 1014.4 hPa WNW 20.9 km/h 27.8 km/h 58 % 0 mm
13:46 20.2 °C 12.2 °C 1014.4 hPa WNW 21.2 km/h 31.5 km/h 60 % 0 mm
13:51 20.5 °C 12.2 °C 1014.4 hPa WNW 19.8 km/h 31.5 km/h 59 % 0 mm
13:56 21 °C 12.2 °C 1014.4 hPa West 27.8 km/h 33.3 km/h 57 % 0 mm
14:01 21.1 °C 11.9 °C 1014.4 hPa WNW 25.6 km/h 31.5 km/h 56 % 0 mm
14:06 20.7 °C 12.2 °C 1014.4 hPa WNW 17.7 km/h 20.4 km/h 58 % 0 mm
14:11 21 °C 11.9 °C 1014.1 hPa WNW 15.9 km/h 24.1 km/h 56 % 0 mm
14:16 21.4 °C 11.7 °C 1014.1 hPa North 22.2 km/h 33.3 km/h 54 % 0 mm
14:21 20.8 °C 12 °C 1014.1 hPa NW 15.8 km/h 20.9 km/h 57 % 0 mm
14:26 20.6 °C 12.1 °C 1014.1 hPa NW 13 km/h 20.4 km/h 58 % 0 mm
14:31 20.7 °C 12.4 °C 1014.1 hPa NW 19 km/h 30.6 km/h 59 % 0 mm
14:36 20.4 °C 12.2 °C 1014.1 hPa North 15.4 km/h 33.3 km/h 59 % 0 mm
14:41 20.5 °C 12.4 °C 1014.1 hPa NW 14.2 km/h 20.4 km/h 60 % 0 mm
14:46 21.3 °C 12.2 °C 1014.1 hPa North 18.3 km/h 22.2 km/h 56 % 0 mm
14:51 21 °C 12.2 °C 1014.1 hPa NW 10.8 km/h 35.2 km/h 57 % 0 mm
14:56 21.1 °C 12.2 °C 1014.1 hPa West 12.4 km/h 14.8 km/h 57 % 0 mm
15:01 21.2 °C 12.6 °C 1013.8 hPa NNW 12.1 km/h 24.1 km/h 58 % 0 mm
15:06 21.1 °C 12.5 °C 1013.8 hPa NW 15.9 km/h 24.1 km/h 58 % 0 mm
15:11 21.7 °C 12.5 °C 1014.1 hPa West 19 km/h 24.1 km/h 56 % 0 mm
15:16 21.7 °C 12.8 °C 1014.1 hPa NW 20.1 km/h 29.6 km/h 57 % 0 mm
15:21 21.6 °C 12.7 °C 1013.8 hPa NNW 11.1 km/h 18.5 km/h 57 % 0 mm
15:26 21.9 °C 12.4 °C 1013.8 hPa NW 8 km/h 13 km/h 55 % 0 mm
15:31 21.6 °C 12.2 °C 1013.8 hPa North 17.5 km/h 25.9 km/h 55 % 0 mm
15:36 21.4 °C 12.3 °C 1013.8 hPa North 8.7 km/h 25.9 km/h 56 % 0 mm
15:41 21.7 °C 12.2 °C 1013.8 hPa WNW 14.6 km/h 22.2 km/h 55 % 0 mm
15:46 22.4 °C 12.3 °C 1013.8 hPa WNW 21.1 km/h 27.8 km/h 53 % 0 mm
15:51 22 °C 12 °C 1013.8 hPa WNW 10.9 km/h 20.4 km/h 53 % 0 mm
15:56 22 °C 12 °C 1013.8 hPa West 17.7 km/h 29 km/h 53 % 0 mm
16:01 22.1 °C 12.1 °C 1013.8 hPa NW 17.4 km/h 22.2 km/h 53 % 0 mm
16:06 22.5 °C 12.4 °C 1013.4 hPa NNW 6.1 km/h 14.8 km/h 53 % 0 mm
16:11 23.1 °C 12.1 °C 1013.4 hPa North 15.6 km/h 20.4 km/h 50 % 0 mm
16:16 22.9 °C 12.3 °C 1013.8 hPa West 14.5 km/h 18.5 km/h 51 % 0 mm
16:21 22.8 °C 12.1 °C 1013.4 hPa WNW 15.1 km/h 22.2 km/h 51 % 0 mm
16:26 22.5 °C 12.2 °C 1013.4 hPa West 20.1 km/h 24.1 km/h 52 % 0 mm
16:31 22.2 °C 11.9 °C 1013.4 hPa WNW 18.2 km/h 24.1 km/h 52 % 0 mm
16:36 22.3 °C 12 °C 1013.4 hPa NW 12.1 km/h 20.4 km/h 52 % 0 mm
16:41 22.4 °C 11.8 °C 1013.4 hPa West 17.2 km/h 22.2 km/h 51 % 0 mm
16:46 22.2 °C 11.9 °C 1013.4 hPa WNW 11.1 km/h 24.1 km/h 52 % 0 mm
16:51 22.1 °C 12.1 °C 1013.4 hPa WNW 12.2 km/h 18.5 km/h 53 % 0 mm
16:56 21.9 °C 11.9 °C 1013.4 hPa West 14.3 km/h 24.1 km/h 53 % 0 mm
17:01 22.1 °C 12.1 °C 1013.8 hPa West 10.9 km/h 20.4 km/h 53 % 0 mm
17:06 22.1 °C 12.1 °C 1013.8 hPa West 16.7 km/h 24.1 km/h 53 % 0 mm
17:11 21.9 °C 11.9 °C 1013.8 hPa West 17.9 km/h 20.4 km/h 53 % 0 mm
17:16 21.8 °C 12.1 °C 1013.8 hPa WNW 14.5 km/h 20.4 km/h 54 % 0 mm
17:21 21.7 °C 12 °C 1013.8 hPa West 9.2 km/h 18.5 km/h 54 % 0 mm
17:26 21.7 °C 12.3 °C 1014.1 hPa North 12.7 km/h 18.5 km/h 55 % 0 mm
17:31 21.5 °C 12.1 °C 1014.1 hPa WNW 23.2 km/h 25.9 km/h 55 % 0 mm
17:36 21.3 °C 12.2 °C 1014.1 hPa WNW 9.3 km/h 13 km/h 56 % 0 mm
17:41 21.4 °C 12.2 °C 1014.1 hPa West 11.9 km/h 18.5 km/h 56 % 0 mm
17:46 21.2 °C 12.1 °C 1014.1 hPa WNW 20.6 km/h 25.9 km/h 56 % 0 mm
17:51 21.2 °C 12.1 °C 1014.4 hPa North 16.6 km/h 20.9 km/h 56 % 0 mm
17:56 21 °C 12.2 °C 1014.4 hPa West 16.9 km/h 27.8 km/h 57 % 0 mm
18:01 20.9 °C 12.1 °C 1014.4 hPa North 19.3 km/h 22.2 km/h 57 % 0 mm
18:06 20.9 °C 12.1 °C 1014.4 hPa West 15.4 km/h 22.2 km/h 57 % 0 mm
18:11 20.9 °C 12.3 °C 1014.4 hPa WNW 15.1 km/h 16.7 km/h 58 % 0 mm
18:16 20.8 °C 12.3 °C 1014.8 hPa West 11.7 km/h 14.8 km/h 58 % 0 mm
18:21 20.8 °C 12.2 °C 1014.8 hPa WNW 11.4 km/h 24.1 km/h 58 % 0 mm
18:26 20.7 °C 12.2 °C 1014.8 hPa North 15.6 km/h 20.4 km/h 58 % 0 mm
18:27 20.7 °C 12.2 °C 1014.8 hPa WNW 13.8 km/h 22.2 km/h 58 % 0 mm
18:32 20.7 °C 12.2 °C 1014.8 hPa West 10 km/h 16.7 km/h 58 % 0 mm
18:37 20.7 °C 12.1 °C 1014.8 hPa West 13.2 km/h 18.5 km/h 58 % 0 mm
18:42 20.7 °C 11.8 °C 1014.8 hPa WNW 11.4 km/h 16.7 km/h 57 % 0 mm
18:47 20.6 °C 12 °C 1015.1 hPa WNW 17.1 km/h 20.9 km/h 58 % 0 mm
18:52 20.5 °C 11.9 °C 1015.1 hPa West 12.6 km/h 18.5 km/h 58 % 0 mm
18:57 20.4 °C 11.9 °C 1015.1 hPa West 10.9 km/h 14.5 km/h 58 % 0 mm
19:02 20.4 °C 11.8 °C 1015.1 hPa WNW 12.7 km/h 16.7 km/h 58 % 0 mm
19:07 20.3 °C 11.8 °C 1015.1 hPa WNW 8.5 km/h 13 km/h 58 % 0 mm
19:12 20.3 °C 12 °C 1015.5 hPa North 9 km/h 13 km/h 59 % 0 mm
19:17 20.1 °C 12.1 °C 1015.5 hPa West 5.8 km/h 7.4 km/h 60 % 0 mm
19:22 20 °C 12.2 °C 1015.5 hPa North 5 km/h 12.9 km/h 61 % 0 mm
19:27 20 °C 12 °C 1015.5 hPa West 4.2 km/h 9.3 km/h 60 % 0 mm
19:32 19.9 °C 11.9 °C 1015.5 hPa West 6.6 km/h 14.8 km/h 60 % 0 mm
19:37 19.9 °C 12.2 °C 1015.8 hPa West 6.6 km/h 9.3 km/h 61 % 0 mm
19:42 19.8 °C 12.1 °C 1015.8 hPa WSW 8.2 km/h 13 km/h 61 % 0 mm
19:47 19.7 °C 12.2 °C 1015.8 hPa North 6.9 km/h 13 km/h 62 % 0 mm
19:52 19.6 °C 12.1 °C 1015.8 hPa WSW 5.1 km/h 9.3 km/h 62 % 0 mm
19:57 19.5 °C 12 °C 1015.8 hPa West 4.8 km/h 5.6 km/h 62 % 0 mm
20:02 19.4 °C 12.2 °C 1016.1 hPa WSW 7.6 km/h 13 km/h 63 % 0 mm
20:07 19.3 °C 12.1 °C 1016.1 hPa West 10 km/h 11.3 km/h 63 % 0 mm
20:12 19.2 °C 12.2 °C 1016.1 hPa West 9.3 km/h 13 km/h 64 % 0 mm
20:17 19.1 °C 12.4 °C 1016.1 hPa West 5.6 km/h 7.4 km/h 65 % 0 mm
20:22 19.1 °C 12.3 °C 1016.1 hPa West 4.5 km/h 7.4 km/h 65 % 0 mm
20:27 19 °C 12.3 °C 1016.1 hPa West 7.2 km/h 9.3 km/h 65 % 0 mm
20:32 18.9 °C 12.4 °C 1016.5 hPa West 6.4 km/h 9.3 km/h 66 % 0 mm
20:37 18.9 °C 12.4 °C 1016.5 hPa West 6.3 km/h 6.3 km/h 66 % 0 mm
20:42 18.8 °C 12.6 °C 1016.5 hPa West 7.4 km/h 9.3 km/h 67 % 0 mm
20:47 18.7 °C 12.4 °C 1016.5 hPa West 8.9 km/h 14.8 km/h 67 % 0 mm
20:52 18.7 °C 12.7 °C 1016.8 hPa North 10.3 km/h 13 km/h 68 % 0 mm
20:57 18.5 °C 12.7 °C 1016.8 hPa North 12.4 km/h 18.5 km/h 69 % 0 mm
21:02 18 °C 12.9 °C 1016.8 hPa SW 11.6 km/h 14.8 km/h 72 % 0 mm
21:07 17.5 °C 13 °C 1017.2 hPa SW 9.5 km/h 14.8 km/h 75 % 0 mm
21:12 17.2 °C 13.2 °C 1017.2 hPa SW 9 km/h 13 km/h 77 % 0 mm
21:17 17.2 °C 13.1 °C 1017.2 hPa North 7.6 km/h 11.1 km/h 77 % 0 mm
21:22 17 °C 13.3 °C 1017.5 hPa SW 7.6 km/h 13 km/h 79 % 0 mm
21:27 16.7 °C 13.4 °C 1017.5 hPa North 12.2 km/h 18.5 km/h 81 % 0 mm
21:32 16.4 °C 13.6 °C 1017.5 hPa SW 6.6 km/h 14.8 km/h 83 % 0 mm
21:37 16.3 °C 13.6 °C 1017.5 hPa North 8.5 km/h 14.8 km/h 84 % 0 mm
21:42 16.2 °C 13.7 °C 1017.5 hPa North 11.3 km/h 16.7 km/h 85 % 0 mm
21:47 16 °C 13.7 °C 1017.8 hPa North 10.6 km/h 11.3 km/h 86 % 0 mm
21:52 15.9 °C 13.7 °C 1017.8 hPa SW 4.3 km/h 7.4 km/h 87 % 0 mm
21:57 15.8 °C 13.8 °C 1017.8 hPa SW 6 km/h 9.3 km/h 88 % 0 mm
22:02 15.7 °C 13.9 °C 1017.8 hPa North 4.2 km/h 7.4 km/h 89 % 0 mm
22:07 15.7 °C 13.8 °C 1017.8 hPa SW 3.5 km/h 5.6 km/h 89 % 0 mm
22:12 15.6 °C 13.8 °C 1017.8 hPa SW 5 km/h 5.6 km/h 89 % 0 mm
22:17 15.5 °C 13.9 °C 1017.8 hPa SW 3.9 km/h 6.4 km/h 90 % 0 mm
22:22 15.4 °C 13.8 °C 1017.8 hPa North 6 km/h 9.3 km/h 90 % 0 mm
22:27 15.4 °C 13.8 °C 1018.2 hPa SW 6 km/h 8 km/h 90 % 0 mm
22:32 15.3 °C 13.7 °C 1018.2 hPa SW 13.4 km/h 18.5 km/h 90 % 0 mm
22:37 15.3 °C 13.8 °C 1018.2 hPa North 6.3 km/h 14.8 km/h 91 % 0.25 mm
22:42 15.3 °C 13.8 °C 1018.2 hPa SW 6.4 km/h 9.3 km/h 91 % 0.25 mm
22:47 15.2 °C 13.8 °C 1018.2 hPa SW 5.5 km/h 11.1 km/h 91 % 0.25 mm
22:52 15.2 °C 13.8 °C 1018.2 hPa SW 3.9 km/h 5.6 km/h 91 % 0.25 mm
22:57 15.2 °C 13.8 °C 1018.2 hPa SW 3.2 km/h 7.4 km/h 91 % 0.25 mm
23:02 15.2 °C 13.8 °C 1018.2 hPa North 8.4 km/h 11.3 km/h 91 % 0.25 mm
23:07 15.1 °C 13.7 °C 1018.5 hPa North 7.6 km/h 13 km/h 91 % 0.25 mm
23:12 15.1 °C 13.6 °C 1018.5 hPa North 6.3 km/h 8 km/h 91 % 0.25 mm
23:17 14.9 °C 13.4 °C 1018.5 hPa SW 12.7 km/h 22.2 km/h 91 % 0.25 mm
23:22 14.8 °C 13.4 °C 1018.5 hPa SW 4.7 km/h 9.3 km/h 91 % 0.25 mm
23:27 14.8 °C 13.3 °C 1018.5 hPa SW 9.3 km/h 12.9 km/h 91 % 0.25 mm
23:32 14.7 °C 13.4 °C 1018.5 hPa North 4.2 km/h 5.6 km/h 92 % 0.51 mm
23:37 14.7 °C 13.4 °C 1018.5 hPa North 7.9 km/h 13 km/h 92 % 0.51 mm
23:42 14.6 °C 13.3 °C 1018.5 hPa SSW 13.8 km/h 18.5 km/h 92 % 0.51 mm
23:47 14.5 °C 13.2 °C 1018.5 hPa SSW 8.7 km/h 18.5 km/h 92 % 0.51 mm
23:52 14.4 °C 13.2 °C 1018.8 hPa SSW 9.5 km/h 18.5 km/h 92 % 0.51 mm
23:57 14 °C 12.6 °C 1018.8 hPa SSW 18.5 km/h 25.9 km/h 91 % 0.51 mm
Ararat Weather
Compliments of Weather Underground - 2.25 mb
Click here to send mail.


ABOUT

Live weather data from Ararat, Victoria, Australia, 3377
Data uploaded from Cumulus every 5 minutes to Weather Underground.
This site then downloads the raw data for formatting and display.
Metric and imperial data can be displayed. Graphs and historical data available.
Includes Sun and Moon times and rain image live from BOM.

Check out Ararat Weather on Facebook, Twitter and Google +

Help support ongoing costs by checking out the ads





Follow @AraratWeather